sensor_id;sensor_type;location;lat;lon;timestamp;P1;durP1;ratioP1;P2;durP2;ratioP2
12970;SDS011;6550;48.650;8.774;2022-12-07T00:01:35;3.20;;;2.80;;
12970;SDS011;6550;48.650;8.774;2022-12-07T00:04:06;3.58;;;3.28;;
12970;SDS011;6550;48.650;8.774;2022-12-07T00:06:39;3.00;;;2.70;;
12970;SDS011;6550;48.650;8.774;2022-12-07T00:09:09;2.93;;;2.73;;
12970;SDS011;6550;48.650;8.774;2022-12-07T00:11:40;4.60;;;3.20;;
12970;SDS011;6550;48.650;8.774;2022-12-07T00:14:11;3.47;;;2.80;;
12970;SDS011;6550;48.650;8.774;2022-12-07T00:16:43;4.37;;;3.10;;
12970;SDS011;6550;48.650;8.774;2022-12-07T00:19:11;3.03;;;2.73;;
12970;SDS011;6550;48.650;8.774;2022-12-07T00:21:39;2.77;;;2.57;;
12970;SDS011;6550;48.650;8.774;2022-12-07T00:24:06;3.60;;;3.30;;
12970;SDS011;6550;48.650;8.774;2022-12-07T00:26:39;3.43;;;3.13;;
12970;SDS011;6550;48.650;8.774;2022-12-07T00:29:16;3.40;;;3.10;;
12970;SDS011;6550;48.650;8.774;2022-12-07T00:31:45;4.87;;;3.00;;
12970;SDS011;6550;48.650;8.774;2022-12-07T00:34:14;3.80;;;2.73;;
12970;SDS011;6550;48.650;8.774;2022-12-07T00:36:42;3.03;;;2.77;;
12970;SDS011;6550;48.650;8.774;2022-12-07T00:39:09;2.80;;;2.60;;
12970;SDS011;6550;48.650;8.774;2022-12-07T00:41:39;4.40;;;3.17;;
12970;SDS011;6550;48.650;8.774;2022-12-07T00:44:12;3.50;;;3.20;;
12970;SDS011;6550;48.650;8.774;2022-12-07T00:46:39;3.03;;;2.73;;
12970;SDS011;6550;48.650;8.774;2022-12-07T00:49:08;3.10;;;2.70;;
12970;SDS011;6550;48.650;8.774;2022-12-07T00:51:35;3.60;;;2.80;;
12970;SDS011;6550;48.650;8.774;2022-12-07T00:54:06;2.80;;;2.60;;
12970;SDS011;6550;48.650;8.774;2022-12-07T00:56:35;3.20;;;2.90;;
12970;SDS011;6550;48.650;8.774;2022-12-07T00:59:04;2.53;;;2.33;;
12970;SDS011;6550;48.650;8.774;2022-12-07T01:01:33;3.87;;;2.97;;
12970;SDS011;6550;48.650;8.774;2022-12-07T01:04:01;2.97;;;2.67;;
12970;SDS011;6550;48.650;8.774;2022-12-07T01:06:31;3.20;;;2.90;;
12970;SDS011;6550;48.650;8.774;2022-12-07T01:09:01;3.33;;;3.03;;
12970;SDS011;6550;48.650;8.774;2022-12-07T01:11:30;3.20;;;2.90;;
12970;SDS011;6550;48.650;8.774;2022-12-07T01:13:57;3.33;;;3.03;;
12970;SDS011;6550;48.650;8.774;2022-12-07T01:16:28;3.10;;;2.80;;
12970;SDS011;6550;48.650;8.774;2022-12-07T01:18:57;2.77;;;2.57;;
12970;SDS011;6550;48.650;8.774;2022-12-07T01:21:26;3.07;;;2.77;;
12970;SDS011;6550;48.650;8.774;2022-12-07T01:23:57;4.07;;;3.00;;
12970;SDS011;6550;48.650;8.774;2022-12-07T01:26:24;3.13;;;2.83;;
12970;SDS011;6550;48.650;8.774;2022-12-07T01:28:51;3.40;;;3.10;;
12970;SDS011;6550;48.650;8.774;2022-12-07T01:31:22;3.67;;;2.80;;
12970;SDS011;6550;48.650;8.774;2022-12-07T01:33:54;3.20;;;2.90;;
12970;SDS011;6550;48.650;8.774;2022-12-07T01:38:54;3.27;;;2.97;;
12970;SDS011;6550;48.650;8.774;2022-12-07T01:41:26;3.03;;;2.73;;
12970;SDS011;6550;48.650;8.774;2022-12-07T01:46:40;2.80;;;2.60;;
12970;SDS011;6550;48.650;8.774;2022-12-07T01:49:10;2.63;;;2.43;;
12970;SDS011;6550;48.650;8.774;2022-12-07T01:51:45;3.17;;;2.70;;
12970;SDS011;6550;48.650;8.774;2022-12-07T01:54:16;3.00;;;2.70;;
12970;SDS011;6550;48.650;8.774;2022-12-07T01:56:50;3.17;;;2.87;;
12970;SDS011;6550;48.650;8.774;2022-12-07T01:59:20;3.40;;;3.10;;
12970;SDS011;6550;48.650;8.774;2022-12-07T02:01:51;3.30;;;3.00;;
12970;SDS011;6550;48.650;8.774;2022-12-07T02:04:18;2.90;;;2.70;;
12970;SDS011;6550;48.650;8.774;2022-12-07T02:06:46;3.30;;;3.00;;
12970;SDS011;6550;48.650;8.774;2022-12-07T02:09:15;3.40;;;3.10;;
12970;SDS011;6550;48.650;8.774;2022-12-07T02:11:44;3.40;;;3.03;;
12970;SDS011;6550;48.650;8.774;2022-12-07T02:14:12;2.70;;;2.50;;
12970;SDS011;6550;48.650;8.774;2022-12-07T02:16:54;3.33;;;2.90;;
12970;SDS011;6550;48.650;8.774;2022-12-07T02:30:52;2.93;;;2.60;;
12970;SDS011;6550;48.650;8.774;2022-12-07T02:33:28;2.80;;;2.60;;
12970;SDS011;6550;48.650;8.774;2022-12-07T02:36:04;2.80;;;2.60;;
12970;SDS011;6550;48.650;8.774;2022-12-07T02:41:20;2.93;;;2.67;;
12970;SDS011;6550;48.650;8.774;2022-12-07T02:43:53;2.83;;;2.63;;
12970;SDS011;6550;48.650;8.774;2022-12-07T02:46:25;3.20;;;2.92;;
12970;SDS011;6550;48.650;8.774;2022-12-07T02:49:00;3.10;;;2.80;;
12970;SDS011;6550;48.650;8.774;2022-12-07T02:51:30;2.60;;;2.40;;
12970;SDS011;6550;48.650;8.774;2022-12-07T02:53:58;3.33;;;3.03;;
12970;SDS011;6550;48.650;8.774;2022-12-07T02:59:11;3.73;;;2.90;;
12970;SDS011;6550;48.650;8.774;2022-12-07T03:07:09;2.97;;;2.70;;
12970;SDS011;6550;48.650;8.774;2022-12-07T03:09:41;3.77;;;2.80;;
12970;SDS011;6550;48.650;8.774;2022-12-07T03:12:18;3.00;;;2.70;;
12970;SDS011;6550;48.650;8.774;2022-12-07T03:14:55;2.70;;;2.50;;
12970;SDS011;6550;48.650;8.774;2022-12-07T03:17:28;3.13;;;2.50;;
12970;SDS011;6550;48.650;8.774;2022-12-07T03:19:58;3.07;;;2.77;;
12970;SDS011;6550;48.650;8.774;2022-12-07T03:22:31;3.00;;;2.80;;
12970;SDS011;6550;48.650;8.774;2022-12-07T03:25:03;3.17;;;2.87;;
12970;SDS011;6550;48.650;8.774;2022-12-07T03:27:41;3.17;;;2.87;;
12970;SDS011;6550;48.650;8.774;2022-12-07T03:30:30;4.40;;;2.50;;
12970;SDS011;6550;48.650;8.774;2022-12-07T03:33:14;2.73;;;2.53;;
12970;SDS011;6550;48.650;8.774;2022-12-07T03:36:11;3.15;;;2.85;;
12970;SDS011;6550;48.650;8.774;2022-12-07T03:38:40;2.80;;;2.60;;
12970;SDS011;6550;48.650;8.774;2022-12-07T03:41:21;3.13;;;2.80;;
12970;SDS011;6550;48.650;8.774;2022-12-07T03:43:51;2.50;;;2.30;;
12970;SDS011;6550;48.650;8.774;2022-12-07T03:46:32;3.97;;;2.80;;
12970;SDS011;6550;48.650;8.774;2022-12-07T03:57:53;3.30;;;3.00;;
12970;SDS011;6550;48.650;8.774;2022-12-07T04:00:25;2.90;;;2.60;;
12970;SDS011;6550;48.650;8.774;2022-12-07T04:02:52;2.77;;;2.50;;
12970;SDS011;6550;48.650;8.774;2022-12-07T04:05:19;2.93;;;2.60;;
12970;SDS011;6550;48.650;8.774;2022-12-07T04:07:47;3.63;;;2.60;;
12970;SDS011;6550;48.650;8.774;2022-12-07T04:10:13;2.90;;;2.63;;
12970;SDS011;6550;48.650;8.774;2022-12-07T04:12:40;2.50;;;2.30;;
12970;SDS011;6550;48.650;8.774;2022-12-07T04:15:07;3.10;;;2.70;;
12970;SDS011;6550;48.650;8.774;2022-12-07T04:17:35;2.50;;;2.30;;
12970;SDS011;6550;48.650;8.774;2022-12-07T04:20:06;4.90;;;2.53;;
12970;SDS011;6550;48.650;8.774;2022-12-07T04:22:36;2.30;;;2.10;;
12970;SDS011;6550;48.650;8.774;2022-12-07T04:25:05;2.80;;;2.50;;
12970;SDS011;6550;48.650;8.774;2022-12-07T04:27:32;3.33;;;3.03;;
12970;SDS011;6550;48.650;8.774;2022-12-07T04:29:59;3.33;;;2.63;;
12970;SDS011;6550;48.650;8.774;2022-12-07T04:32:26;3.87;;;2.87;;
12970;SDS011;6550;48.650;8.774;2022-12-07T04:34:53;3.05;;;2.80;;
12970;SDS011;6550;48.650;8.774;2022-12-07T04:37:22;2.87;;;2.67;;
12970;SDS011;6550;48.650;8.774;2022-12-07T04:39:50;3.23;;;2.83;;
12970;SDS011;6550;48.650;8.774;2022-12-07T04:42:17;2.60;;;2.30;;
12970;SDS011;6550;48.650;8.774;2022-12-07T04:44:43;3.60;;;2.50;;
12970;SDS011;6550;48.650;8.774;2022-12-07T04:47:12;2.80;;;2.60;;
12970;SDS011;6550;48.650;8.774;2022-12-07T04:49:39;2.63;;;2.40;;
12970;SDS011;6550;48.650;8.774;2022-12-07T04:52:06;2.53;;;2.33;;
12970;SDS011;6550;48.650;8.774;2022-12-07T04:54:33;2.23;;;2.10;;
12970;SDS011;6550;48.650;8.774;2022-12-07T04:57:02;2.53;;;2.30;;
12970;SDS011;6550;48.650;8.774;2022-12-07T04:59:28;2.73;;;2.53;;
12970;SDS011;6550;48.650;8.774;2022-12-07T05:01:55;2.70;;;2.50;;
12970;SDS011;6550;48.650;8.774;2022-12-07T05:04:24;2.50;;;2.30;;
12970;SDS011;6550;48.650;8.774;2022-12-07T05:06:51;2.30;;;2.20;;
12970;SDS011;6550;48.650;8.774;2022-12-07T05:09:20;2.43;;;2.23;;
12970;SDS011;6550;48.650;8.774;2022-12-07T05:11:47;2.53;;;2.33;;
12970;SDS011;6550;48.650;8.774;2022-12-07T05:14:17;2.60;;;2.20;;
12970;SDS011;6550;48.650;8.774;2022-12-07T05:16:49;2.50;;;2.30;;
12970;SDS011;6550;48.650;8.774;2022-12-07T05:19:19;2.37;;;2.07;;
12970;SDS011;6550;48.650;8.774;2022-12-07T05:21:46;2.37;;;2.13;;
12970;SDS011;6550;48.650;8.774;2022-12-07T05:24:15;3.13;;;2.23;;
12970;SDS011;6550;48.650;8.774;2022-12-07T05:26:43;2.40;;;2.20;;
12970;SDS011;6550;48.650;8.774;2022-12-07T05:29:12;2.57;;;2.37;;
12970;SDS011;6550;48.650;8.774;2022-12-07T05:31:44;2.87;;;2.27;;
12970;SDS011;6550;48.650;8.774;2022-12-07T05:34:12;2.10;;;2.00;;
12970;SDS011;6550;48.650;8.774;2022-12-07T05:36:39;2.13;;;2.03;;
12970;SDS011;6550;48.650;8.774;2022-12-07T05:39:06;2.57;;;2.37;;
12970;SDS011;6550;48.650;8.774;2022-12-07T05:41:33;2.27;;;2.03;;
12970;SDS011;6550;48.650;8.774;2022-12-07T05:44:18;2.80;;;2.30;;
12970;SDS011;6550;48.650;8.774;2022-12-07T05:46:45;2.90;;;2.70;;
12970;SDS011;6550;48.650;8.774;2022-12-07T05:49:12;3.07;;;2.77;;
12970;SDS011;6550;48.650;8.774;2022-12-07T05:51:41;3.07;;;2.80;;
12970;SDS011;6550;48.650;8.774;2022-12-07T05:54:10;2.40;;;2.20;;
12970;SDS011;6550;48.650;8.774;2022-12-07T05:56:40;2.47;;;2.27;;
12970;SDS011;6550;48.650;8.774;2022-12-07T05:59:11;2.20;;;2.00;;
12970;SDS011;6550;48.650;8.774;2022-12-07T06:04:19;2.57;;;2.37;;
12970;SDS011;6550;48.650;8.774;2022-12-07T06:06:47;2.20;;;2.00;;
12970;SDS011;6550;48.650;8.774;2022-12-07T06:09:15;2.83;;;2.27;;
12970;SDS011;6550;48.650;8.774;2022-12-07T06:11:42;2.50;;;2.30;;
12970;SDS011;6550;48.650;8.774;2022-12-07T06:14:30;2.53;;;2.10;;
12970;SDS011;6550;48.650;8.774;2022-12-07T06:16:57;2.60;;;2.40;;
12970;SDS011;6550;48.650;8.774;2022-12-07T06:19:27;2.30;;;2.10;;
12970;SDS011;6550;48.650;8.774;2022-12-07T06:21:54;2.83;;;2.20;;
12970;SDS011;6550;48.650;8.774;2022-12-07T06:24:21;2.95;;;2.75;;
12970;SDS011;6550;48.650;8.774;2022-12-07T06:26:50;3.53;;;2.50;;
12970;SDS011;6550;48.650;8.774;2022-12-07T06:29:17;2.83;;;2.40;;
12970;SDS011;6550;48.650;8.774;2022-12-07T06:31:45;2.47;;;2.27;;
12970;SDS011;6550;48.650;8.774;2022-12-07T06:34:13;2.90;;;2.57;;
12970;SDS011;6550;48.650;8.774;2022-12-07T06:36:42;2.95;;;2.65;;
12970;SDS011;6550;48.650;8.774;2022-12-07T06:39:13;3.27;;;2.40;;
12970;SDS011;6550;48.650;8.774;2022-12-07T06:41:40;2.50;;;2.30;;
12970;SDS011;6550;48.650;8.774;2022-12-07T06:44:07;2.97;;;2.60;;
12970;SDS011;6550;48.650;8.774;2022-12-07T06:46:36;2.60;;;2.23;;
12970;SDS011;6550;48.650;8.774;2022-12-07T06:49:03;2.47;;;2.27;;
12970;SDS011;6550;48.650;8.774;2022-12-07T06:51:33;3.50;;;2.63;;
12970;SDS011;6550;48.650;8.774;2022-12-07T06:54:10;2.43;;;2.23;;
12970;SDS011;6550;48.650;8.774;2022-12-07T06:56:38;2.60;;;2.40;;
12970;SDS011;6550;48.650;8.774;2022-12-07T06:59:05;2.78;;;2.50;;
12970;SDS011;6550;48.650;8.774;2022-12-07T07:01:33;3.23;;;2.90;;
12970;SDS011;6550;48.650;8.774;2022-12-07T07:04:01;2.70;;;2.40;;
12970;SDS011;6550;48.650;8.774;2022-12-07T07:06:33;3.90;;;2.73;;
12970;SDS011;6550;48.650;8.774;2022-12-07T07:09:00;2.97;;;2.67;;
12970;SDS011;6550;48.650;8.774;2022-12-07T07:11:29;3.90;;;2.80;;
12970;SDS011;6550;48.650;8.774;2022-12-07T07:13:58;3.30;;;2.90;;
12970;SDS011;6550;48.650;8.774;2022-12-07T07:16:29;3.53;;;3.10;;
12970;SDS011;6550;48.650;8.774;2022-12-07T07:18:57;3.67;;;3.00;;
12970;SDS011;6550;48.650;8.774;2022-12-07T07:21:23;3.97;;;3.03;;
12970;SDS011;6550;48.650;8.774;2022-12-07T07:23:50;4.63;;;3.50;;
12970;SDS011;6550;48.650;8.774;2022-12-07T07:26:18;3.67;;;3.37;;
12970;SDS011;6550;48.650;8.774;2022-12-07T07:28:48;5.83;;;3.17;;
12970;SDS011;6550;48.650;8.774;2022-12-07T07:31:15;3.97;;;3.57;;
12970;SDS011;6550;48.650;8.774;2022-12-07T07:33:42;3.40;;;3.10;;
12970;SDS011;6550;48.650;8.774;2022-12-07T07:36:08;4.80;;;3.42;;
12970;SDS011;6550;48.650;8.774;2022-12-07T07:38:35;3.90;;;3.17;;
12970;SDS011;6550;48.650;8.774;2022-12-07T07:41:02;4.77;;;4.00;;
12970;SDS011;6550;48.650;8.774;2022-12-07T07:43:28;4.10;;;3.57;;
12970;SDS011;6550;48.650;8.774;2022-12-07T07:45:58;4.67;;;3.60;;
12970;SDS011;6550;48.650;8.774;2022-12-07T07:48:27;4.20;;;3.80;;
12970;SDS011;6550;48.650;8.774;2022-12-07T07:50:53;5.00;;;4.10;;
12970;SDS011;6550;48.650;8.774;2022-12-07T07:53:23;4.70;;;4.20;;
12970;SDS011;6550;48.650;8.774;2022-12-07T07:55:52;6.27;;;3.73;;
12970;SDS011;6550;48.650;8.774;2022-12-07T07:58:19;5.10;;;4.37;;
12970;SDS011;6550;48.650;8.774;2022-12-07T08:00:47;5.37;;;4.30;;
12970;SDS011;6550;48.650;8.774;2022-12-07T08:03:13;4.93;;;4.20;;
12970;SDS011;6550;48.650;8.774;2022-12-07T08:05:40;5.50;;;4.47;;
12970;SDS011;6550;48.650;8.774;2022-12-07T08:08:09;6.10;;;4.67;;
12970;SDS011;6550;48.650;8.774;2022-12-07T08:10:36;5.10;;;4.50;;
12970;SDS011;6550;48.650;8.774;2022-12-07T08:13:03;6.10;;;5.10;;
12970;SDS011;6550;48.650;8.774;2022-12-07T08:15:43;5.73;;;5.10;;
12970;SDS011;6550;48.650;8.774;2022-12-07T08:18:11;8.07;;;5.63;;
12970;SDS011;6550;48.650;8.774;2022-12-07T08:20:42;7.67;;;5.70;;
12970;SDS011;6550;48.650;8.774;2022-12-07T08:23:09;6.43;;;5.77;;
12970;SDS011;6550;48.650;8.774;2022-12-07T08:25:38;6.40;;;5.70;;
12970;SDS011;6550;48.650;8.774;2022-12-07T08:28:10;6.00;;;5.27;;
12970;SDS011;6550;48.650;8.774;2022-12-07T08:30:39;6.10;;;5.07;;
12970;SDS011;6550;48.650;8.774;2022-12-07T08:33:06;7.07;;;5.20;;
12970;SDS011;6550;48.650;8.774;2022-12-07T08:35:33;5.70;;;5.00;;
12970;SDS011;6550;48.650;8.774;2022-12-07T08:38:03;6.07;;;4.93;;
12970;SDS011;6550;48.650;8.774;2022-12-07T08:40:29;5.37;;;4.87;;
12970;SDS011;6550;48.650;8.774;2022-12-07T08:42:56;5.47;;;4.53;;
12970;SDS011;6550;48.650;8.774;2022-12-07T08:45:23;5.97;;;4.90;;
12970;SDS011;6550;48.650;8.774;2022-12-07T08:47:57;9.07;;;5.07;;
12970;SDS011;6550;48.650;8.774;2022-12-07T08:50:30;5.40;;;4.50;;
12970;SDS011;6550;48.650;8.774;2022-12-07T08:52:58;5.30;;;4.30;;
12970;SDS011;6550;48.650;8.774;2022-12-07T08:55:26;5.20;;;4.60;;
12970;SDS011;6550;48.650;8.774;2022-12-07T08:57:54;5.17;;;4.67;;
12970;SDS011;6550;48.650;8.774;2022-12-07T09:00:24;5.00;;;4.50;;
12970;SDS011;6550;48.650;8.774;2022-12-07T09:02:56;5.10;;;4.60;;
12970;SDS011;6550;48.650;8.774;2022-12-07T09:05:22;4.83;;;4.33;;
12970;SDS011;6550;48.650;8.774;2022-12-07T09:07:50;5.10;;;4.60;;
12970;SDS011;6550;48.650;8.774;2022-12-07T09:10:23;4.50;;;4.10;;
12970;SDS011;6550;48.650;8.774;2022-12-07T09:12:52;13.60;;;5.63;;
12970;SDS011;6550;48.650;8.774;2022-12-07T09:15:22;4.80;;;4.30;;
12970;SDS011;6550;48.650;8.774;2022-12-07T09:17:48;7.87;;;4.80;;
12970;SDS011;6550;48.650;8.774;2022-12-07T09:20:18;15.70;;;4.50;;
12970;SDS011;6550;48.650;8.774;2022-12-07T09:22:52;11.33;;;4.37;;
12970;SDS011;6550;48.650;8.774;2022-12-07T09:25:19;7.57;;;5.00;;
12970;SDS011;6550;48.650;8.774;2022-12-07T09:27:45;7.87;;;4.67;;
12970;SDS011;6550;48.650;8.774;2022-12-07T09:30:14;7.93;;;4.27;;
12970;SDS011;6550;48.650;8.774;2022-12-07T09:32:43;6.60;;;4.47;;
12970;SDS011;6550;48.650;8.774;2022-12-07T09:35:10;8.23;;;4.70;;
12970;SDS011;6550;48.650;8.774;2022-12-07T09:37:39;4.67;;;4.20;;
12970;SDS011;6550;48.650;8.774;2022-12-07T09:40:06;11.97;;;4.43;;
12970;SDS011;6550;48.650;8.774;2022-12-07T09:42:34;6.00;;;4.47;;
12970;SDS011;6550;48.650;8.774;2022-12-07T09:45:04;5.07;;;4.50;;
12970;SDS011;6550;48.650;8.774;2022-12-07T09:47:33;5.07;;;4.57;;
12970;SDS011;6550;48.650;8.774;2022-12-07T09:50:03;4.63;;;4.13;;
12970;SDS011;6550;48.650;8.774;2022-12-07T09:52:33;5.40;;;4.83;;
12970;SDS011;6550;48.650;8.774;2022-12-07T09:55:09;5.30;;;4.63;;
12970;SDS011;6550;48.650;8.774;2022-12-07T09:57:38;5.30;;;4.73;;
12970;SDS011;6550;48.650;8.774;2022-12-07T10:00:15;5.97;;;4.63;;
12970;SDS011;6550;48.650;8.774;2022-12-07T10:02:47;5.27;;;4.67;;
12970;SDS011;6550;48.650;8.774;2022-12-07T10:07:58;6.50;;;4.60;;
12970;SDS011;6550;48.650;8.774;2022-12-07T10:10:31;4.90;;;4.40;;
12970;SDS011;6550;48.650;8.774;2022-12-07T10:18:25;5.57;;;5.07;;
12970;SDS011;6550;48.650;8.774;2022-12-07T10:23:35;4.90;;;4.40;;
12970;SDS011;6550;48.650;8.774;2022-12-07T10:29:14;6.33;;;4.60;;
12970;SDS011;6550;48.650;8.774;2022-12-07T10:31:49;5.40;;;4.40;;
12970;SDS011;6550;48.650;8.774;2022-12-07T10:34:23;6.47;;;4.50;;
12970;SDS011;6550;48.650;8.774;2022-12-07T10:36:52;5.63;;;5.13;;
12970;SDS011;6550;48.650;8.774;2022-12-07T10:39:39;5.20;;;4.70;;
12970;SDS011;6550;48.650;8.774;2022-12-07T10:42:21;5.13;;;4.50;;
12970;SDS011;6550;48.650;8.774;2022-12-07T10:45:07;5.30;;;4.80;;
12970;SDS011;6550;48.650;8.774;2022-12-07T10:48:19;5.17;;;4.63;;
12970;SDS011;6550;48.650;8.774;2022-12-07T11:01:30;5.47;;;4.60;;
12970;SDS011;6550;48.650;8.774;2022-12-07T11:06:51;4.70;;;4.27;;
12970;SDS011;6550;48.650;8.774;2022-12-07T11:12:41;5.82;;;4.93;;
12970;SDS011;6550;48.650;8.774;2022-12-07T11:15:45;4.73;;;4.27;;
12970;SDS011;6550;48.650;8.774;2022-12-07T11:18:47;6.37;;;3.97;;
12970;SDS011;6550;48.650;8.774;2022-12-07T11:24:18;4.20;;;3.60;;
12970;SDS011;6550;48.650;8.774;2022-12-07T11:37:07;4.40;;;4.00;;
12970;SDS011;6550;48.650;8.774;2022-12-07T11:39:44;4.03;;;3.57;;
12970;SDS011;6550;48.650;8.774;2022-12-07T11:42:16;5.37;;;3.63;;
12970;SDS011;6550;48.650;8.774;2022-12-07T11:44:57;5.57;;;4.10;;
12970;SDS011;6550;48.650;8.774;2022-12-07T11:47:38;5.00;;;4.50;;
12970;SDS011;6550;48.650;8.774;2022-12-07T11:50:27;4.03;;;3.63;;
12970;SDS011;6550;48.650;8.774;2022-12-07T12:01:03;3.83;;;3.27;;
12970;SDS011;6550;48.650;8.774;2022-12-07T12:03:59;3.37;;;3.07;;
12970;SDS011;6550;48.650;8.774;2022-12-07T12:06:43;3.53;;;3.23;;
12970;SDS011;6550;48.650;8.774;2022-12-07T12:09:12;3.43;;;3.13;;
12970;SDS011;6550;48.650;8.774;2022-12-07T12:22:58;3.50;;;3.17;;
12970;SDS011;6550;48.650;8.774;2022-12-07T12:25:35;3.53;;;3.00;;
12970;SDS011;6550;48.650;8.774;2022-12-07T12:28:19;3.50;;;3.20;;
12970;SDS011;6550;48.650;8.774;2022-12-07T12:34:00;5.97;;;4.50;;
12970;SDS011;6550;48.650;8.774;2022-12-07T12:51:56;5.23;;;4.20;;
12970;SDS011;6550;48.650;8.774;2022-12-07T12:54:29;5.18;;;4.78;;
12970;SDS011;6550;48.650;8.774;2022-12-07T13:02:28;4.77;;;4.20;;
12970;SDS011;6550;48.650;8.774;2022-12-07T13:04:58;4.40;;;3.93;;
12970;SDS011;6550;48.650;8.774;2022-12-07T13:28:52;3.50;;;2.97;;
12970;SDS011;6550;48.650;8.774;2022-12-07T13:31:40;3.63;;;3.00;;
12970;SDS011;6550;48.650;8.774;2022-12-07T13:37:01;2.50;;;2.30;;
12970;SDS011;6550;48.650;8.774;2022-12-07T13:39:44;2.90;;;2.60;;
12970;SDS011;6550;48.650;8.774;2022-12-07T13:42:27;2.77;;;2.30;;
12970;SDS011;6550;48.650;8.774;2022-12-07T13:44:56;3.07;;;2.77;;
12970;SDS011;6550;48.650;8.774;2022-12-07T13:49:57;3.37;;;2.80;;
12970;SDS011;6550;48.650;8.774;2022-12-07T13:52:25;3.30;;;2.87;;
12970;SDS011;6550;48.650;8.774;2022-12-07T13:57:33;4.57;;;3.33;;
12970;SDS011;6550;48.650;8.774;2022-12-07T14:00:04;3.13;;;2.77;;
12970;SDS011;6550;48.650;8.774;2022-12-07T14:02:53;3.73;;;2.93;;
12970;SDS011;6550;48.650;8.774;2022-12-07T14:05:24;3.07;;;2.73;;
12970;SDS011;6550;48.650;8.774;2022-12-07T14:10:29;2.50;;;2.30;;
12970;SDS011;6550;48.650;8.774;2022-12-07T14:12:58;2.67;;;2.47;;
12970;SDS011;6550;48.650;8.774;2022-12-07T14:15:29;2.57;;;2.37;;
12970;SDS011;6550;48.650;8.774;2022-12-07T14:18:01;2.90;;;2.43;;
12970;SDS011;6550;48.650;8.774;2022-12-07T14:20:38;2.37;;;2.17;;
12970;SDS011;6550;48.650;8.774;2022-12-07T14:23:21;2.67;;;2.47;;
12970;SDS011;6550;48.650;8.774;2022-12-07T14:25:51;3.00;;;2.70;;
12970;SDS011;6550;48.650;8.774;2022-12-07T14:28:29;3.23;;;2.70;;
12970;SDS011;6550;48.650;8.774;2022-12-07T14:30:57;3.13;;;2.27;;
12970;SDS011;6550;48.650;8.774;2022-12-07T14:33:27;3.03;;;2.58;;
12970;SDS011;6550;48.650;8.774;2022-12-07T14:35:59;2.47;;;2.27;;
12970;SDS011;6550;48.650;8.774;2022-12-07T14:38:28;2.60;;;2.40;;
12970;SDS011;6550;48.650;8.774;2022-12-07T14:40:55;2.77;;;2.20;;
12970;SDS011;6550;48.650;8.774;2022-12-07T14:43:45;4.40;;;2.03;;
12970;SDS011;6550;48.650;8.774;2022-12-07T14:46:32;2.70;;;2.30;;
12970;SDS011;6550;48.650;8.774;2022-12-07T14:49:02;2.92;;;2.63;;
12970;SDS011;6550;48.650;8.774;2022-12-07T14:51:48;2.80;;;2.30;;
12970;SDS011;6550;48.650;8.774;2022-12-07T14:54:35;3.43;;;2.10;;
12970;SDS011;6550;48.650;8.774;2022-12-07T14:57:02;3.10;;;2.00;;
12970;SDS011;6550;48.650;8.774;2022-12-07T14:59:29;2.63;;;2.23;;
12970;SDS011;6550;48.650;8.774;2022-12-07T15:01:55;2.10;;;1.90;;
12970;SDS011;6550;48.650;8.774;2022-12-07T15:04:27;2.23;;;2.03;;
12970;SDS011;6550;48.650;8.774;2022-12-07T15:06:55;2.27;;;2.07;;
12970;SDS011;6550;48.650;8.774;2022-12-07T15:09:26;2.20;;;1.83;;
12970;SDS011;6550;48.650;8.774;2022-12-07T15:11:53;2.00;;;1.80;;
12970;SDS011;6550;48.650;8.774;2022-12-07T15:14:19;2.67;;;2.00;;
12970;SDS011;6550;48.650;8.774;2022-12-07T15:16:46;1.77;;;1.60;;
12970;SDS011;6550;48.650;8.774;2022-12-07T15:19:34;3.40;;;1.60;;
12970;SDS011;6550;48.650;8.774;2022-12-07T15:22:01;1.93;;;1.70;;
12970;SDS011;6550;48.650;8.774;2022-12-07T15:24:27;2.43;;;1.83;;
12970;SDS011;6550;48.650;8.774;2022-12-07T15:26:56;2.47;;;1.80;;
12970;SDS011;6550;48.650;8.774;2022-12-07T15:29:25;1.80;;;1.70;;
12970;SDS011;6550;48.650;8.774;2022-12-07T15:31:52;1.77;;;1.67;;
12970;SDS011;6550;48.650;8.774;2022-12-07T15:34:23;2.37;;;1.70;;
12970;SDS011;6550;48.650;8.774;2022-12-07T15:36:53;1.73;;;1.60;;
12970;SDS011;6550;48.650;8.774;2022-12-07T15:39:23;3.67;;;1.60;;
12970;SDS011;6550;48.650;8.774;2022-12-07T15:41:52;1.63;;;1.50;;
12970;SDS011;6550;48.650;8.774;2022-12-07T15:44:21;1.40;;;1.30;;
12970;SDS011;6550;48.650;8.774;2022-12-07T15:47:06;2.07;;;1.87;;
12970;SDS011;6550;48.650;8.774;2022-12-07T15:49:33;2.00;;;1.73;;
12970;SDS011;6550;48.650;8.774;2022-12-07T15:51:59;3.40;;;1.90;;
12970;SDS011;6550;48.650;8.774;2022-12-07T15:54:29;1.80;;;1.70;;
12970;SDS011;6550;48.650;8.774;2022-12-07T15:56:58;1.67;;;1.50;;
12970;SDS011;6550;48.650;8.774;2022-12-07T15:59:27;1.60;;;1.50;;
12970;SDS011;6550;48.650;8.774;2022-12-07T16:01:55;1.73;;;1.60;;
12970;SDS011;6550;48.650;8.774;2022-12-07T16:04:22;1.80;;;1.60;;
12970;SDS011;6550;48.650;8.774;2022-12-07T16:06:49;1.70;;;1.60;;
12970;SDS011;6550;48.650;8.774;2022-12-07T16:09:17;1.70;;;1.50;;
12970;SDS011;6550;48.650;8.774;2022-12-07T16:11:44;2.90;;;1.80;;
12970;SDS011;6550;48.650;8.774;2022-12-07T16:14:12;1.60;;;1.50;;
12970;SDS011;6550;48.650;8.774;2022-12-07T16:16:38;2.13;;;1.80;;
12970;SDS011;6550;48.650;8.774;2022-12-07T16:19:06;2.40;;;1.80;;
12970;SDS011;6550;48.650;8.774;2022-12-07T16:21:34;1.70;;;1.60;;
12970;SDS011;6550;48.650;8.774;2022-12-07T16:24:04;1.70;;;1.60;;
12970;SDS011;6550;48.650;8.774;2022-12-07T16:26:36;2.30;;;1.80;;
12970;SDS011;6550;48.650;8.774;2022-12-07T16:29:05;5.47;;;1.80;;
12970;SDS011;6550;48.650;8.774;2022-12-07T16:31:32;1.60;;;1.50;;
12970;SDS011;6550;48.650;8.774;2022-12-07T16:34:00;2.73;;;1.77;;
12970;SDS011;6550;48.650;8.774;2022-12-07T16:36:26;1.77;;;1.67;;
12970;SDS011;6550;48.650;8.774;2022-12-07T16:39:13;2.43;;;1.80;;
12970;SDS011;6550;48.650;8.774;2022-12-07T16:41:44;2.67;;;2.00;;
12970;SDS011;6550;48.650;8.774;2022-12-07T16:44:11;3.23;;;2.03;;
12970;SDS011;6550;48.650;8.774;2022-12-07T16:46:41;2.20;;;2.00;;
12970;SDS011;6550;48.650;8.774;2022-12-07T16:49:14;3.43;;;2.30;;
12970;SDS011;6550;48.650;8.774;2022-12-07T16:51:42;4.93;;;2.30;;
12970;SDS011;6550;48.650;8.774;2022-12-07T16:54:11;2.85;;;2.55;;
12970;SDS011;6550;48.650;8.774;2022-12-07T16:56:38;2.90;;;2.30;;
12970;SDS011;6550;48.650;8.774;2022-12-07T16:59:06;2.47;;;2.27;;
12970;SDS011;6550;48.650;8.774;2022-12-07T17:01:37;3.47;;;2.57;;
12970;SDS011;6550;48.650;8.774;2022-12-07T17:04:04;4.90;;;3.00;;
12970;SDS011;6550;48.650;8.774;2022-12-07T17:06:31;3.17;;;2.63;;
12970;SDS011;6550;48.650;8.774;2022-12-07T17:08:58;3.43;;;2.37;;
12970;SDS011;6550;48.650;8.774;2022-12-07T17:11:26;3.67;;;2.93;;
12970;SDS011;6550;48.650;8.774;2022-12-07T17:13:54;3.10;;;2.80;;
12970;SDS011;6550;48.650;8.774;2022-12-07T17:16:40;3.43;;;2.77;;
12970;SDS011;6550;48.650;8.774;2022-12-07T17:19:07;4.27;;;3.00;;
12970;SDS011;6550;48.650;8.774;2022-12-07T17:21:35;4.83;;;3.03;;
12970;SDS011;6550;48.650;8.774;2022-12-07T17:24:06;4.90;;;2.90;;
12970;SDS011;6550;48.650;8.774;2022-12-07T17:26:34;3.67;;;3.20;;
12970;SDS011;6550;48.650;8.774;2022-12-07T17:29:02;4.40;;;3.10;;
12970;SDS011;6550;48.650;8.774;2022-12-07T17:31:34;4.43;;;2.80;;
12970;SDS011;6550;48.650;8.774;2022-12-07T17:34:01;4.37;;;2.60;;
12970;SDS011;6550;48.650;8.774;2022-12-07T17:36:37;3.70;;;2.77;;
12970;SDS011;6550;48.650;8.774;2022-12-07T17:39:08;3.67;;;2.77;;
12970;SDS011;6550;48.650;8.774;2022-12-07T17:41:36;3.37;;;2.70;;
12970;SDS011;6550;48.650;8.774;2022-12-07T17:44:24;3.15;;;2.85;;
12970;SDS011;6550;48.650;8.774;2022-12-07T17:46:51;2.80;;;2.30;;
12970;SDS011;6550;48.650;8.774;2022-12-07T17:49:28;3.53;;;3.10;;
12970;SDS011;6550;48.650;8.774;2022-12-07T17:51:55;3.57;;;2.43;;
12970;SDS011;6550;48.650;8.774;2022-12-07T17:54:40;2.93;;;2.33;;
12970;SDS011;6550;48.650;8.774;2022-12-07T17:57:07;2.93;;;2.40;;
12970;SDS011;6550;48.650;8.774;2022-12-07T17:59:34;2.70;;;2.27;;
12970;SDS011;6550;48.650;8.774;2022-12-07T18:02:01;2.73;;;2.40;;